Terminal Aerodrome Forecast
Issued by NWS

Home | Current Version | Previous Version | Text Only | Print | Product List | Glossary On
Versions: 1 2 3 4 5 6 7 8 9 10 11 12 13 14 15 16 17 18 19
000
FTAK31 PANC 251740
TAFAIL
TAF
PAIL 251740Z 2518/2618 34009KT P6SM FEW150
     FM260600 VRB03KT P6SM VCSH BKN040
     FM261400 36009KT P6SM SCT040 BKN100=

USA.gov is the U.S. government's official web portal to all federal, state and local government web resources and services.